Terminal Aerodrome Forecast
Issued by NWS

Home | Current Version | Previous Version | Text Only | Print | Product List | Glossary On
Versions: 1 2 3 4 5 6 7 8 9 10 11 12 13 14 15 16 17 18 19 20 21 22 23 24 25 26 27 28
000
FTUS45 KABQ 172340
TAFLVS
TAF
KLVS 172340Z 1800/1824 26011KT P6SM SCT090
      TEMPO 1800/1801 26011G21KT
     FM180200 26006KT P6SM FEW100
     FM181100 03006KT P6SM FEW110
     FM181800 21011KT P6SM SCT110
     FM181930 21012G22KT P6SM SCT110=

USA.gov is the U.S. government's official web portal to all federal, state and local government web resources and services.